Time;durP1;ratioP1;P1;durP2;ratioP2;P2;SDS_P1;SDS_P2;PMS_P1;PMS_P2;Temp;Humidity;BMP_temperature;BMP_pressure;BME280_temperature;BME280_humidity;BME280_pressure;Samples;Min_cycle;Max_cycle;Signal;HPM_P1;HPM_P2
2024/04/14 00:01:58;;;;;;;;;;;;;;;16.19;69.34;99493.56;5386953;26;19929;-81
2024/04/14 00:04:23;;;;;;;;;;;;;;;16.20;69.57;99493.13;5384678;26;19999;-79
2024/04/14 00:06:49;;;;;;;;;;;;;;;16.16;69.37;99486.88;5413763;26;19961;-81
2024/04/14 00:09:14;;;;;;;;;;;;;;;16.21;69.54;99489.06;5418526;26;19933;-80
2024/04/14 00:11:39;;;;;;;;;;;;;;;16.27;68.59;99492.81;5395045;26;19929;-79
2024/04/14 00:14:05;;;;;;;;;;;;;;;16.21;68.50;99483.50;5399300;26;19933;-81
2024/04/14 00:16:30;;;;;;;;;;;;;;;16.32;68.56;99485.13;5391265;26;19997;-79
2024/04/14 00:18:56;;;;;;;;;;;;;;;16.28;68.40;99480.44;5418420;26;19929;-80
2024/04/14 00:21:24;;;;;;;;;;;;;;;16.26;68.61;99480.13;5413689;26;19933;-81
2024/04/14 00:23:50;;;;;;;;;;;;;;;16.21;68.45;99474.38;5401456;26;19940;-79
2024/04/14 00:26:15;;;;;;;;;;;;;;;16.12;68.75;99477.09;5389779;26;20365;-79
2024/04/14 00:28:40;;;;;;;;;;;;;;;16.13;68.55;99475.88;5383586;26;19933;-81
2024/04/14 00:31:06;;;;;;;;;;;;;;;16.17;68.86;99480.06;5388988;26;20351;-80
2024/04/14 00:33:34;;;;;;;;;;;;;;;16.03;69.40;99477.03;5418732;26;19928;-80
2024/04/14 00:35:59;;;;;;;;;;;;;;;16.18;68.64;99475.28;5431714;26;19929;-79
2024/04/14 00:38:25;;;;;;;;;;;;;;;16.15;68.46;99476.97;5422083;26;19928;-80
2024/04/14 00:40:50;;;;;;;;;;;;;;;16.12;68.63;99475.09;5395830;26;19933;-80
2024/04/14 00:43:15;;;;;;;;;;;;;;;16.00;69.17;99475.16;5403004;26;20351;-78
2024/04/14 00:45:41;;;;;;;;;;;;;;;15.91;70.12;99466.75;5417658;26;20364;-79
2024/04/14 00:48:07;;;;;;;;;;;;;;;15.84;70.11;99462.22;5398074;26;19930;-80
2024/04/14 00:50:32;;;;;;;;;;;;;;;15.96;69.79;99469.72;5390184;26;19937;-82
2024/04/14 00:52:58;;;;;;;;;;;;;;;15.98;70.04;99464.44;5398244;26;19937;-79
2024/04/14 00:55:23;;;;;;;;;;;;;;;15.97;69.65;99470.50;5382223;26;20407;-79
2024/04/14 00:57:49;;;;;;;;;;;;;;;15.92;69.79;99468.28;5403396;26;19929;-80
2024/04/14 01:00:14;;;;;;;;;;;;;;;15.95;69.61;99470.94;5393588;26;19932;-80
2024/04/14 01:02:40;;;;;;;;;;;;;;;16.08;69.08;99480.03;5416991;26;20260;-81
2024/04/14 01:05:05;;;;;;;;;;;;;;;16.07;68.92;99481.25;5411008;26;19941;-79
2024/04/14 01:07:31;;;;;;;;;;;;;;;16.13;68.32;99476.66;5404697;26;19937;-80
2024/04/14 01:09:57;;;;;;;;;;;;;;;16.04;68.33;99471.00;5394219;26;20349;-79
2024/04/14 01:12:22;;;;;;;;;;;;;;;15.98;69.02;99475.59;5397170;26;19936;-80
2024/04/14 01:14:48;;;;;;;;;;;;;;;15.99;69.03;99474.38;5382769;26;19930;-79
2024/04/14 01:17:13;;;;;;;;;;;;;;;16.00;69.20;99477.94;5382624;26;19929;-81
2024/04/14 01:19:38;;;;;;;;;;;;;;;15.96;69.54;99477.31;5413955;26;19932;-81
2024/04/14 01:22:04;;;;;;;;;;;;;;;15.87;70.28;99481.56;5419418;26;19939;-78
2024/04/14 01:24:29;;;;;;;;;;;;;;;15.79;71.09;99473.94;5419181;26;19929;-79
2024/04/14 01:26:54;;;;;;;;;;;;;;;15.68;71.56;99479.09;5398323;26;19934;-80
2024/04/14 01:29:21;;;;;;;;;;;;;;;15.56;72.34;99477.13;5389645;26;19936;-78
2024/04/14 01:31:46;;;;;;;;;;;;;;;15.47;73.17;99480.59;5397748;26;19929;-78
2024/04/14 01:34:14;;;;;;;;;;;;;;;15.51;72.85;99481.25;5414032;26;19997;-79
2024/04/14 01:36:39;;;;;;;;;;;;;;;15.44;73.34;99478.69;5397322;26;19929;-79
2024/04/14 01:39:05;;;;;;;;;;;;;;;15.52;73.16;99474.47;5413101;26;19936;-78
2024/04/14 01:41:30;;;;;;;;;;;;;;;15.60;72.38;99470.22;5418242;26;20581;-79
2024/04/14 01:43:55;;;;;;;;;;;;;;;15.64;72.34;99473.66;5413936;26;19929;-79
2024/04/14 01:46:21;;;;;;;;;;;;;;;15.59;72.30;99476.25;5417133;26;19957;-79
2024/04/14 01:48:46;;;;;;;;;;;;;;;15.52;72.22;99473.66;5393871;26;20371;-77
2024/04/14 01:51:12;;;;;;;;;;;;;;;15.43;72.58;99469.56;5418806;26;19929;-78
2024/04/14 01:53:38;;;;;;;;;;;;;;;15.45;72.57;99471.91;5392817;26;19929;-79
2024/04/14 01:56:03;;;;;;;;;;;;;;;15.47;72.41;99469.47;5399049;26;19930;-78
2024/04/14 01:58:28;;;;;;;;;;;;;;;15.56;71.59;99466.00;5410062;26;19997;-79
2024/04/14 02:00:54;;;;;;;;;;;;;;;15.70;71.07;99454.34;5416754;26;19940;-78
2024/04/14 02:03:19;;;;;;;;;;;;;;;15.70;70.12;99459.91;5392805;26;19965;-78
2024/04/14 02:05:44;;;;;;;;;;;;;;;15.85;69.77;99460.97;5416744;26;19936;-78
2024/04/14 02:08:09;;;;;;;;;;;;;;;15.89;69.42;99469.97;5412875;26;20335;-78
2024/04/14 02:10:41;;;;;;;;;;;;;;;15.86;69.53;99468.09;5398917;26;19928;-78
2024/04/14 02:13:06;;;;;;;;;;;;;;;15.86;68.84;99473.66;5417855;26;19943;-79
2024/04/14 02:15:31;;;;;;;;;;;;;;;15.86;68.88;99476.44;5396571;26;20369;-78
2024/04/14 02:17:57;;;;;;;;;;;;;;;15.76;69.32;99481.19;5389019;26;19929;-78
2024/04/14 02:20:22;;;;;;;;;;;;;;;15.72;69.46;99474.97;5398174;26;20015;-80
2024/04/14 02:22:47;;;;;;;;;;;;;;;15.57;70.43;99475.91;5389188;26;20280;-78
2024/04/14 02:25:13;;;;;;;;;;;;;;;15.56;70.66;99475.13;5416431;26;19929;-78
2024/04/14 02:27:38;;;;;;;;;;;;;;;15.48;70.77;99482.94;5385709;26;19930;-80
2024/04/14 02:30:03;;;;;;;;;;;;;;;15.48;70.77;99479.38;5380968;26;19929;-78
2024/04/14 02:32:28;;;;;;;;;;;;;;;15.42;71.08;99476.38;5380948;26;19937;-78
2024/04/14 02:34:54;;;;;;;;;;;;;;;15.44;71.47;99484.28;5398853;26;20002;-80
2024/04/14 02:37:19;;;;;;;;;;;;;;;15.42;71.19;99484.75;5410565;26;19929;-78
2024/04/14 02:39:45;;;;;;;;;;;;;;;15.34;71.47;99480.63;5380561;26;20003;-79
2024/04/14 02:42:10;;;;;;;;;;;;;;;15.26;71.81;99482.09;5409321;26;19930;-78
2024/04/14 02:44:35;;;;;;;;;;;;;;;15.43;71.44;99477.91;5416135;26;20361;-79
2024/04/14 02:47:00;;;;;;;;;;;;;;;15.53;71.21;99472.47;5414614;26;19936;-79
2024/04/14 02:49:28;;;;;;;;;;;;;;;15.43;71.36;99471.59;5396408;26;19937;-78
2024/04/14 02:51:53;;;;;;;;;;;;;;;15.28;71.77;99468.50;5412199;26;19929;-78
2024/04/14 02:54:18;;;;;;;;;;;;;;;15.25;72.02;99474.22;5398472;26;19937;-80
2024/04/14 02:56:44;;;;;;;;;;;;;;;15.27;72.08;99475.31;5393599;26;19936;-78
2024/04/14 02:59:09;;;;;;;;;;;;;;;15.23;71.82;99471.88;5416043;26;20261;-78
2024/04/14 03:01:34;;;;;;;;;;;;;;;15.20;72.16;99467.19;5412032;26;19929;-78
2024/04/14 03:04:00;;;;;;;;;;;;;;;15.14;72.20;99468.97;5380828;26;19935;-79
2024/04/14 03:06:25;;;;;;;;;;;;;;;15.10;72.56;99465.53;5408943;26;19936;-80
2024/04/14 03:08:50;;;;;;;;;;;;;;;15.23;72.01;99479.44;5416271;26;19929;-79
2024/04/14 03:11:15;;;;;;;;;;;;;;;15.22;71.99;99475.09;5413108;26;19935;-77
2024/04/14 03:13:41;;;;;;;;;;;;;;;15.08;72.26;99465.22;5403844;26;19940;-78
2024/04/14 03:16:06;;;;;;;;;;;;;;;15.03;72.23;99474.91;5413794;26;19937;-78
2024/04/14 03:18:32;;;;;;;;;;;;;;;14.93;72.91;99484.38;5413574;26;19934;-78
2024/04/14 03:20:57;;;;;;;;;;;;;;;14.87;73.13;99479.84;5383090;26;20346;-80
2024/04/14 03:23:24;;;;;;;;;;;;;;;14.76;73.45;99479.41;5418124;26;19929;-80
2024/04/14 03:25:49;;;;;;;;;;;;;;;14.64;73.98;99484.53;5412674;26;19929;-78
2024/04/14 03:28:15;;;;;;;;;;;;;;;14.71;73.70;99491.84;5395620;26;19929;-81
2024/04/14 03:30:40;;;;;;;;;;;;;;;14.63;74.80;99488.53;5413941;26;19937;-78
2024/04/14 03:33:05;;;;;;;;;;;;;;;14.60;74.95;99489.41;5380477;26;19929;-79
2024/04/14 03:35:30;;;;;;;;;;;;;;;14.60;74.95;99485.84;5379793;26;19930;-80
2024/04/14 03:37:56;;;;;;;;;;;;;;;14.52;75.33;99482.50;5380184;26;19929;-78
2024/04/14 03:40:21;;;;;;;;;;;;;;;14.54;75.17;99485.59;5405340;26;19937;-78
2024/04/14 03:42:46;;;;;;;;;;;;;;;14.57;74.65;99487.53;5393174;26;20012;-78
2024/04/14 03:45:12;;;;;;;;;;;;;;;14.63;74.12;99485.75;5413960;26;19933;-79
2024/04/14 03:47:39;;;;;;;;;;;;;;;14.62;74.22;99486.97;5379220;26;20731;-81
2024/04/14 03:50:04;;;;;;;;;;;;;;;14.61;74.05;99490.19;5403330;26;19942;-78
2024/04/14 03:52:30;;;;;;;;;;;;;;;14.63;74.00;99494.09;5392270;26;19940;-79
2024/04/14 03:54:55;;;;;;;;;;;;;;;14.69;73.95;99487.97;5390733;26;19929;-79
2024/04/14 03:57:20;;;;;;;;;;;;;;;14.71;73.99;99497.41;5379380;26;19936;-78
2024/04/14 03:59:46;;;;;;;;;;;;;;;14.80;73.39;99491.19;5381134;26;19937;-77
2024/04/14 04:02:11;;;;;;;;;;;;;;;14.65;74.20;99494.41;5372672;26;19938;-80
2024/04/14 04:04:37;;;;;;;;;;;;;;;14.75;73.80;99502.88;5389199;26;20380;-78
2024/04/14 04:07:02;;;;;;;;;;;;;;;14.93;73.09;99508.66;5406773;26;19960;-81
2024/04/14 04:09:27;;;;;;;;;;;;;;;15.09;71.49;99505.72;5379266;26;20265;-79
2024/04/14 04:11:53;;;;;;;;;;;;;;;15.22;70.70;99508.50;5401007;26;19936;-80
2024/04/14 04:14:18;;;;;;;;;;;;;;;15.38;69.84;99508.34;5379517;26;19941;-79
2024/04/14 04:16:43;;;;;;;;;;;;;;;15.52;68.48;99504.31;5411869;26;19957;-80
2024/04/14 04:19:09;;;;;;;;;;;;;;;15.69;67.87;99509.28;5395111;26;19929;-81
2024/04/14 04:21:34;;;;;;;;;;;;;;;15.89;66.89;99506.22;5379185;26;19936;-78
2024/04/14 04:23:59;;;;;;;;;;;;;;;16.06;65.90;99504.78;5378689;26;19941;-80
2024/04/14 04:26:24;;;;;;;;;;;;;;;16.22;64.92;99501.00;5374697;26;19933;-79
2024/04/14 04:28:50;;;;;;;;;;;;;;;16.51;63.25;99514.66;5365351;26;19941;-80
2024/04/14 04:31:15;;;;;;;;;;;;;;;16.97;61.10;99510.88;5411502;26;19929;-81
2024/04/14 04:33:41;;;;;;;;;;;;;;;17.37;59.43;99507.22;5413123;26;20047;-80
2024/04/14 04:36:07;;;;;;;;;;;;;;;17.65;57.76;99503.28;5413029;26;19941;-80
2024/04/14 04:38:33;;;;;;;;;;;;;;;18.43;54.51;99507.38;5412958;26;19929;-81
2024/04/14 04:40:58;;;;;;;;;;;;;;;18.88;52.78;99498.84;5408865;26;20273;-81
2024/04/14 04:43:23;;;;;;;;;;;;;;;19.25;51.92;99515.47;5400732;26;19936;-80
2024/04/14 04:45:49;;;;;;;;;;;;;;;19.57;50.48;99509.06;5414037;26;20349;-81
2024/04/14 04:48:14;;;;;;;;;;;;;;;20.03;49.65;99512.25;5413974;26;19935;-80
2024/04/14 04:50:46;;;;;;;;;;;;;;;19.83;49.63;99512.16;5391627;26;20368;-80
2024/04/14 04:53:11;;;;;;;;;;;;;;;20.13;48.60;99519.34;5417538;26;19928;-81
2024/04/14 04:55:36;;;;;;;;;;;;;;;20.31;49.24;99513.53;5416376;26;19929;-80
2024/04/14 04:58:01;;;;;;;;;;;;;;;21.20;47.09;99516.31;5420180;26;19933;-81
2024/04/14 05:00:27;;;;;;;;;;;;;;;21.67;44.64;99507.50;5408983;26;20247;-79
2024/04/14 05:02:53;;;;;;;;;;;;;;;21.46;45.57;99508.75;5381721;26;20372;-81
2024/04/14 05:05:19;;;;;;;;;;;;;;;21.82;44.97;99513.03;5382534;26;20007;-82
2024/04/14 05:07:45;;;;;;;;;;;;;;;22.04;43.24;99520.97;5406524;26;19929;-78
2024/04/14 05:10:10;;;;;;;;;;;;;;;22.21;44.07;99511.44;5387028;26;19940;-79
2024/04/14 05:12:35;;;;;;;;;;;;;;;22.11;43.42;99517.75;5395760;26;19940;-79
2024/04/14 05:15:04;;;;;;;;;;;;;;;22.62;41.85;99517.72;5394225;26;19968;-78
2024/04/14 05:17:30;;;;;;;;;;;;;;;22.79;42.07;99508.66;5417172;26;20269;-80
2024/04/14 05:19:56;;;;;;;;;;;;;;;23.18;40.48;99512.53;5395865;26;19929;-80
2024/04/14 05:22:21;;;;;;;;;;;;;;;23.87;39.90;99513.91;5395253;26;19937;-79
2024/04/14 05:24:46;;;;;;;;;;;;;;;24.11;38.84;99513.44;5408065;26;19930;-78
2024/04/14 05:27:13;;;;;;;;;;;;;;;24.46;38.47;99515.09;5382106;26;20065;-78
2024/04/14 05:29:39;;;;;;;;;;;;;;;24.85;37.72;99513.03;5382025;26;19957;-81
2024/04/14 05:32:04;;;;;;;;;;;;;;;25.16;37.25;99514.06;5382053;26;19999;-79
2024/04/14 05:34:29;;;;;;;;;;;;;;;25.67;36.28;99523.97;5407928;26;19965;-79
2024/04/14 05:36:55;;;;;;;;;;;;;;;25.24;36.71;99518.69;5384695;26;19930;-79
2024/04/14 05:39:21;;;;;;;;;;;;;;;25.76;36.04;99521.63;5416177;26;19928;-82
2024/04/14 05:41:46;;;;;;;;;;;;;;;25.86;35.59;99519.28;5394822;26;20361;-79
2024/04/14 05:44:12;;;;;;;;;;;;;;;26.71;34.03;99519.00;5416259;26;20014;-79
2024/04/14 05:46:37;;;;;;;;;;;;;;;26.44;34.50;99517.16;5397978;26;19930;-80
2024/04/14 05:49:03;;;;;;;;;;;;;;;26.69;33.83;99512.31;5415911;26;20353;-79
2024/04/14 05:51:28;;;;;;;;;;;;;;;26.85;33.74;99510.63;5439045;26;19941;-79
2024/04/14 05:53:53;;;;;;;;;;;;;;;26.10;34.65;99504.47;5415793;26;19921;-79
2024/04/14 05:56:19;;;;;;;;;;;;;;;25.44;35.68;99518.34;5421169;26;20019;-79
2024/04/14 05:58:45;;;;;;;;;;;;;;;25.45;35.63;99510.63;5406590;26;20290;-78
2024/04/14 06:01:12;;;;;;;;;;;;;;;26.06;34.44;99510.41;5405160;26;19936;-80
2024/04/14 06:03:37;;;;;;;;;;;;;;;26.56;33.87;99512.16;5384520;26;19930;-78
2024/04/14 06:06:03;;;;;;;;;;;;;;;26.59;33.37;99506.19;5381435;26;19930;-79
2024/04/14 06:08:28;;;;;;;;;;;;;;;27.51;32.65;99507.16;5403991;26;19933;-78
2024/04/14 06:10:53;;;;;;;;;;;;;;;27.85;30.87;99503.94;5402151;26;19936;-80
2024/04/14 06:13:19;;;;;;;;;;;;;;;28.04;30.88;99512.44;5418537;26;19941;-78
2024/04/14 06:15:44;;;;;;;;;;;;;;;27.66;31.49;99512.44;5416364;26;19929;-81
2024/04/14 06:18:10;;;;;;;;;;;;;;;28.10;30.75;99513.88;5416319;26;19929;-78
2024/04/14 06:20:38;;;;;;;;;;;;;;;28.09;31.38;99514.44;5395609;26;19938;-79
2024/04/14 06:23:03;;;;;;;;;;;;;;;28.28;30.80;99512.38;5380493;26;20007;-79
2024/04/14 06:25:29;;;;;;;;;;;;;;;28.48;30.20;99513.88;5373331;26;19941;-79
2024/04/14 06:27:55;;;;;;;;;;;;;;;29.31;29.29;99517.38;5393519;26;20361;-83
2024/04/14 06:30:20;;;;;;;;;;;;;;;29.48;29.62;99524.31;5418435;26;19929;-81
2024/04/14 06:32:45;;;;;;;;;;;;;;;30.63;27.73;99524.44;5416477;26;20005;-81
2024/04/14 06:35:11;;;;;;;;;;;;;;;31.06;27.02;99528.84;5396353;26;20397;-80
2024/04/14 06:37:36;;;;;;;;;;;;;;;31.08;26.97;99529.06;5380918;26;19937;-81
2024/04/14 06:40:02;;;;;;;;;;;;;;;30.66;27.25;99522.56;5404547;26;19944;-82
2024/04/14 06:42:27;;;;;;;;;;;;;;;29.96;27.61;99527.28;5419827;26;19940;-81
2024/04/14 06:44:52;;;;;;;;;;;;;;;30.90;27.21;99530.78;5400819;26;19938;-83
2024/04/14 06:47:18;;;;;;;;;;;;;;;31.59;26.31;99523.53;5384860;26;19966;-80
2024/04/14 06:49:43;;;;;;;;;;;;;;;31.66;25.56;99519.19;5404619;26;19929;-80
2024/04/14 06:52:08;;;;;;;;;;;;;;;31.76;25.26;99523.84;5408177;26;19934;-81
2024/04/14 06:54:34;;;;;;;;;;;;;;;32.10;25.54;99523.59;5403396;26;20334;-82
2024/04/14 06:56:59;;;;;;;;;;;;;;;31.74;25.96;99526.47;5409176;26;19937;-80
2024/04/14 06:59:24;;;;;;;;;;;;;;;31.93;26.41;99523.34;5380257;26;19930;-81
2024/04/14 07:01:53;;;;;;;;;;;;;;;32.30;26.14;99524.84;5408040;26;20286;-80
2024/04/14 07:04:18;;;;;;;;;;;;;;;31.86;25.95;99519.13;5415280;26;19929;-81
2024/04/14 07:06:44;;;;;;;;;;;;;;;32.50;24.79;99514.56;5390698;26;19940;-80
2024/04/14 07:09:09;;;;;;;;;;;;;;;31.45;26.32;99508.59;5396725;26;20419;-80
2024/04/14 07:11:34;;;;;;;;;;;;;;;31.73;24.94;99515.59;5381224;26;20008;-82
2024/04/14 07:14:00;;;;;;;;;;;;;;;31.68;25.62;99513.69;5399794;26;19933;-80
2024/04/14 07:16:25;;;;;;;;;;;;;;;32.17;25.29;99513.53;5384122;26;20272;-80
2024/04/14 07:18:50;;;;;;;;;;;;;;;32.20;25.15;99507.44;5382527;26;19930;-81
2024/04/14 07:21:15;;;;;;;;;;;;;;;32.75;24.95;99504.13;5388738;26;19932;-82
2024/04/14 07:23:41;;;;;;;;;;;;;;;32.92;24.22;99498.59;5417950;26;20379;-82
2024/04/14 07:26:06;;;;;;;;;;;;;;;33.75;22.15;99500.63;5392863;26;19998;-82
2024/04/14 07:28:31;;;;;;;;;;;;;;;34.42;23.21;99503.75;5397088;26;19930;-80
2024/04/14 07:30:57;;;;;;;;;;;;;;;34.70;22.67;99506.28;5412478;26;19945;-82
2024/04/14 07:33:22;;;;;;;;;;;;;;;34.43;21.90;99507.38;5385895;26;19929;-81
2024/04/14 07:35:47;;;;;;;;;;;;;;;34.23;22.43;99498.53;5417442;26;19940;-81
2024/04/14 07:38:13;;;;;;;;;;;;;;;33.82;23.49;99502.69;5417135;26;20020;-80
2024/04/14 07:40:39;;;;;;;;;;;;;;;34.43;21.78;99499.53;5407876;26;19941;-80
2024/04/14 07:43:07;;;;;;;;;;;;;;;35.08;20.65;99502.34;5399451;26;19929;-80
2024/04/14 07:45:32;;;;;;;;;;;;;;;34.42;21.22;99503.75;5417266;26;19941;-79
2024/04/14 07:47:57;;;;;;;;;;;;;;;33.99;22.29;99498.44;5415194;26;19937;-80
2024/04/14 07:50:23;;;;;;;;;;;;;;;33.18;21.49;99506.06;5415974;26;19932;-79
2024/04/14 07:52:48;;;;;;;;;;;;;;;32.03;23.77;99500.69;5415026;26;19933;-81
2024/04/14 07:55:14;;;;;;;;;;;;;;;31.13;25.69;99491.03;5416783;26;19929;-79
2024/04/14 07:57:40;;;;;;;;;;;;;;;30.51;25.20;99491.03;5414439;26;19929;-80
2024/04/14 08:00:06;;;;;;;;;;;;;;;29.75;25.71;99496.59;5414357;26;19936;-79
2024/04/14 08:02:31;;;;;;;;;;;;;;;29.18;28.75;99483.22;5385168;26;20256;-79
2024/04/14 08:04:56;;;;;;;;;;;;;;;28.76;27.33;99488.63;5388092;26;20357;-80
2024/04/14 08:07:22;;;;;;;;;;;;;;;28.37;27.57;99488.47;5396038;26;19929;-80
2024/04/14 08:09:47;;;;;;;;;;;;;;;28.02;27.47;99480.97;5415194;26;20261;-80
2024/04/14 08:12:14;;;;;;;;;;;;;;;27.35;28.19;99485.41;5416721;26;19998;-80
2024/04/14 08:14:39;;;;;;;;;;;;;;;26.78;27.82;99482.84;5395833;26;19945;-78
2024/04/14 08:17:06;;;;;;;;;;;;;;;26.62;28.35;99470.38;5404377;26;19938;-82
2024/04/14 08:19:32;;;;;;;;;;;;;;;26.65;30.14;99474.97;5412818;26;19929;-78
2024/04/14 08:21:57;;;;;;;;;;;;;;;26.67;29.75;99467.47;5423626;26;19936;-80
2024/04/14 08:24:22;;;;;;;;;;;;;;;26.75;29.47;99464.84;5417969;26;19930;-79
2024/04/14 08:26:48;;;;;;;;;;;;;;;26.77;29.31;99467.91;5422513;26;19929;-80
2024/04/14 08:29:13;;;;;;;;;;;;;;;26.92;32.03;99461.88;5382494;26;19937;-78
2024/04/14 08:31:39;;;;;;;;;;;;;;;27.20;29.28;99475.75;5399772;26;19940;-82
2024/04/14 08:34:04;;;;;;;;;;;;;;;27.05;28.69;99459.94;5393539;26;20464;-80
2024/04/14 08:36:30;;;;;;;;;;;;;;;27.09;28.48;99465.31;5418824;26;19956;-81
2024/04/14 08:38:55;;;;;;;;;;;;;;;27.06;27.71;99458.63;5393298;26;19930;-79
2024/04/14 08:41:22;;;;;;;;;;;;;;;27.24;29.53;99462.06;5418082;26;19936;-79
2024/04/14 08:43:48;;;;;;;;;;;;;;;27.36;28.96;99455.72;5396570;26;19966;-80
2024/04/14 08:46:16;;;;;;;;;;;;;;;27.56;29.34;99453.69;5419631;26;20268;-80
2024/04/14 08:48:43;;;;;;;;;;;;;;;27.68;30.31;99450.16;5417810;26;19994;-79
2024/04/14 08:51:09;;;;;;;;;;;;;;;27.79;28.40;99449.28;5401148;26;19944;-79
2024/04/14 08:53:36;;;;;;;;;;;;;;;27.98;28.98;99446.41;5408243;26;20384;-80
2024/04/14 08:56:07;;;;;;;;;;;;;;;28.00;30.26;99441.72;5384928;26;19933;-81
2024/04/14 08:58:33;;;;;;;;;;;;;;;28.21;28.56;99445.56;5379923;26;20392;-79
2024/04/14 09:01:02;;;;;;;;;;;;;;;28.28;28.72;99447.78;5398585;26;19929;-79
2024/04/14 09:03:35;;;;;;;;;;;;;;;28.25;28.36;99440.34;5407597;26;19962;-79
2024/04/14 09:06:05;;;;;;;;;;;;;;;28.35;29.30;99432.16;5400523;26;20006;-78
2024/04/14 09:08:31;;;;;;;;;;;;;;;28.39;30.30;99434.72;5383126;26;20341;-81
2024/04/14 09:10:56;;;;;;;;;;;;;;;28.44;28.37;99428.94;5401859;26;20027;-82
2024/04/14 09:13:24;;;;;;;;;;;;;;;28.43;29.05;99435.91;5416358;26;19936;-80
2024/04/14 09:15:53;;;;;;;;;;;;;;;28.12;27.69;99431.72;5394940;26;20016;-80
2024/04/14 09:18:19;;;;;;;;;;;;;;;27.58;26.94;99422.69;5419043;26;19928;-79
2024/04/14 09:20:44;;;;;;;;;;;;;;;27.43;26.80;99426.72;5394204;26;20365;-80
2024/04/14 09:23:09;;;;;;;;;;;;;;;27.19;26.70;99421.06;5415818;26;19937;-79
2024/04/14 09:25:35;;;;;;;;;;;;;;;27.14;28.35;99413.41;5396093;26;20372;-79
2024/04/14 09:28:01;;;;;;;;;;;;;;;27.23;27.31;99418.72;5381670;26;19938;-82
2024/04/14 09:30:26;;;;;;;;;;;;;;;27.34;27.35;99414.97;5381674;26;20003;-79
2024/04/14 09:32:52;;;;;;;;;;;;;;;27.41;27.86;99409.47;5381549;26;19942;-79
2024/04/14 09:35:18;;;;;;;;;;;;;;;27.32;27.39;99404.16;5407237;26;19937;-80
2024/04/14 09:37:44;;;;;;;;;;;;;;;27.29;29.31;99398.78;5417110;26;19936;-79
2024/04/14 09:40:11;;;;;;;;;;;;;;;27.45;30.46;99398.56;5395014;26;19929;-81
2024/04/14 09:42:37;;;;;;;;;;;;;;;27.47;26.74;99389.53;5372435;26;19957;-79
2024/04/14 09:45:03;;;;;;;;;;;;;;;27.45;27.18;99398.56;5418812;26;19936;-80
2024/04/14 09:47:29;;;;;;;;;;;;;;;27.18;26.42;99382.69;5382393;26;19940;-81
2024/04/14 09:49:54;;;;;;;;;;;;;;;27.07;27.16;99383.56;5406834;26;19937;-85
2024/04/14 09:52:21;;;;;;;;;;;;;;;27.14;26.74;99377.28;5417559;26;19935;-80
2024/04/14 09:54:47;;;;;;;;;;;;;;;27.29;28.60;99374.03;5394410;26;19937;-82
2024/04/14 09:57:12;;;;;;;;;;;;;;;27.56;28.13;99368.50;5405176;26;19929;-84
2024/04/14 09:59:38;;;;;;;;;;;;;;;27.57;26.87;99372.91;5404919;26;19929;-84
2024/04/14 10:02:05;;;;;;;;;;;;;;;27.50;27.17;99360.06;5407042;26;19929;-81
2024/04/14 10:04:31;;;;;;;;;;;;;;;27.44;28.04;99368.66;5381845;26;19941;-82
2024/04/14 10:06:56;;;;;;;;;;;;;;;27.53;27.70;99359.78;5417969;26;19936;-80
2024/04/14 10:09:24;;;;;;;;;;;;;;;27.59;28.84;99358.94;5418082;26;19928;-79
2024/04/14 10:11:49;;;;;;;;;;;;;;;27.71;27.59;99357.47;5405919;26;19976;-82
2024/04/14 10:14:14;;;;;;;;;;;;;;;27.75;26.39;99361.53;5380877;26;19938;-83
2024/04/14 10:16:50;;;;;;;;;;;;;;;27.70;26.16;99355.94;5406178;26;19936;-81
2024/04/14 10:19:18;;;;;;;;;;;;;;;27.69;26.68;99360.06;5383054;26;20007;-80
2024/04/14 10:21:43;;;;;;;;;;;;;;;27.70;25.09;99350.25;5395291;26;19940;-80
2024/04/14 10:24:10;;;;;;;;;;;;;;;27.67;25.11;99346.41;5390405;26;19936;-81
2024/04/14 10:26:35;;;;;;;;;;;;;;;27.57;28.69;99342.44;5383703;26;20335;-82
2024/04/14 10:29:05;;;;;;;;;;;;;;;27.70;26.11;99341.72;5411876;26;19929;-80
2024/04/14 10:31:31;;;;;;;;;;;;;;;27.58;26.09;99337.53;5377734;26;19936;-82
2024/04/14 10:34:07;;;;;;;;;;;;;;;27.47;26.72;99330.69;5378858;26;19937;-80
2024/04/14 10:36:34;;;;;;;;;;;;;;;27.44;25.86;99334.59;5378142;26;19929;-81
2024/04/14 10:38:59;;;;;;;;;;;;;;;27.45;25.99;99326.84;5402585;26;19958;-83
2024/04/14 10:41:25;;;;;;;;;;;;;;;27.49;25.82;99325.22;5380416;26;20360;-80
2024/04/14 10:43:51;;;;;;;;;;;;;;;27.26;25.97;99318.31;5381886;26;19945;-80
2024/04/14 10:46:16;;;;;;;;;;;;;;;27.14;25.53;99319.78;5381599;26;20377;-81
2024/04/14 10:48:45;;;;;;;;;;;;;;;27.32;27.77;99318.25;5410467;26;19940;-80
2024/04/14 10:51:11;;;;;;;;;;;;;;;27.46;25.79;99314.94;5416818;26;20261;-81
2024/04/14 10:53:36;;;;;;;;;;;;;;;27.44;24.52;99317.56;5390903;26;19930;-80
2024/04/14 10:56:02;;;;;;;;;;;;;;;27.43;25.97;99310.34;5419620;26;19953;-83
2024/04/14 10:58:30;;;;;;;;;;;;;;;27.37;24.96;99303.97;5409859;26;19929;-81
2024/04/14 11:00:56;;;;;;;;;;;;;;;27.43;25.92;99301.81;5398031;26;20346;-81
2024/04/14 11:03:23;;;;;;;;;;;;;;;27.48;26.02;99291.72;5409368;26;19936;-80
2024/04/14 11:05:49;;;;;;;;;;;;;;;27.51;25.46;99297.09;5398379;26;19930;-81
2024/04/14 11:08:15;;;;;;;;;;;;;;;27.46;26.15;99295.09;5383031;26;19945;-82
2024/04/14 11:10:41;;;;;;;;;;;;;;;27.46;25.22;99297.16;5382428;26;19933;-82
2024/04/14 11:13:07;;;;;;;;;;;;;;;27.41;25.44;99287.41;5387835;26;19929;-82
2024/04/14 11:15:33;;;;;;;;;;;;;;;27.41;26.35;99281.75;5397873;26;19936;-83
2024/04/14 11:17:59;;;;;;;;;;;;;;;27.53;27.62;99285.97;5385525;26;19929;-80
2024/04/14 11:20:24;;;;;;;;;;;;;;;27.53;25.51;99279.53;5398159;26;19929;-81
2024/04/14 11:22:49;;;;;;;;;;;;;;;27.49;25.94;99274.13;5385548;26;20245;-81
2024/04/14 11:25:16;;;;;;;;;;;;;;;27.77;26.40;99268.03;5417891;26;20396;-82
2024/04/14 11:27:41;;;;;;;;;;;;;;;27.72;23.86;99273.81;5412004;26;20369;-80
2024/04/14 11:30:07;;;;;;;;;;;;;;;27.67;23.85;99266.16;5380088;26;19944;-81
2024/04/14 11:32:35;;;;;;;;;;;;;;;27.69;23.30;99263.53;5401572;26;20007;-81
2024/04/14 11:35:05;;;;;;;;;;;;;;;27.67;23.37;99263.31;5377564;26;19930;-80
2024/04/14 11:37:31;;;;;;;;;;;;;;;27.60;23.50;99249.75;5407385;26;20357;-82
2024/04/14 11:39:57;;;;;;;;;;;;;;;27.74;24.58;99254.16;5393504;26;19936;-81
2024/04/14 11:42:24;;;;;;;;;;;;;;;27.80;25.75;99249.13;5407155;26;19958;-81
2024/04/14 11:44:50;;;;;;;;;;;;;;;27.73;25.79;99242.03;5383483;26;19929;-81
2024/04/14 11:47:17;;;;;;;;;;;;;;;27.68;25.06;99244.94;5388035;26;19961;-83
2024/04/14 11:49:43;;;;;;;;;;;;;;;27.70;24.64;99248.03;5415335;26;19957;-86
2024/04/14 11:52:10;;;;;;;;;;;;;;;27.68;25.90;99242.13;5409300;26;20007;-82
2024/04/14 11:54:37;;;;;;;;;;;;;;;27.66;24.68;99239.06;5398945;26;19936;-83
2024/04/14 11:57:03;;;;;;;;;;;;;;;27.55;24.69;99230.75;5415332;26;19957;-83
2024/04/14 11:59:34;;;;;;;;;;;;;;;27.69;25.97;99229.44;5414875;26;19929;-81
2024/04/14 12:02:01;;;;;;;;;;;;;;;27.77;26.61;99219.00;5382564;26;19933;-81
2024/04/14 12:04:26;;;;;;;;;;;;;;;27.88;25.24;99216.72;5379617;26;19937;-81
2024/04/14 12:06:51;;;;;;;;;;;;;;;27.84;24.44;99207.00;5379909;26;19929;-82
2024/04/14 12:09:17;;;;;;;;;;;;;;;27.81;24.68;99203.16;5403194;26;20260;-82
2024/04/14 12:11:42;;;;;;;;;;;;;;;27.76;25.14;99201.19;5414196;26;19939;-82
2024/04/14 12:14:07;;;;;;;;;;;;;;;27.69;24.05;99190.47;5393543;26;19933;-82
2024/04/14 12:16:36;;;;;;;;;;;;;;;27.76;24.68;99180.53;5379674;26;19930;-83
2024/04/14 12:19:02;;;;;;;;;;;;;;;27.87;24.34;99177.50;5401022;26;19936;-82
2024/04/14 12:21:27;;;;;;;;;;;;;;;27.80;25.11;99181.75;5391543;26;19929;-81
2024/04/14 12:23:52;;;;;;;;;;;;;;;27.99;27.45;99172.38;5395266;26;19930;-82
2024/04/14 12:26:18;;;;;;;;;;;;;;;27.90;25.13;99171.50;5379846;26;19940;-82
2024/04/14 12:28:43;;;;;;;;;;;;;;;27.94;23.73;99171.19;5402961;26;19937;-80
2024/04/14 12:31:08;;;;;;;;;;;;;;;27.90;23.87;99165.84;5392474;26;19945;-81
2024/04/14 12:33:34;;;;;;;;;;;;;;;27.89;24.28;99155.00;5416395;26;19929;-82
2024/04/14 12:36:00;;;;;;;;;;;;;;;27.78;27.17;99155.22;5383053;26;19930;-83
2024/04/14 12:38:25;;;;;;;;;;;;;;;27.81;23.63;99151.28;5379289;26;19956;-83
2024/04/14 12:40:50;;;;;;;;;;;;;;;27.80;23.49;99149.75;5387723;26;19929;-82